Portada
METAR-TAF:

METAR-TAF

Aeropuertos :

Castres, Francia

latitud: 43-33-25N, longitud: 2-17-21E, altitud: 239 m

Observación

El informe se hizo hace 17 minutos, a las 08:30 UTC
Viento 3 kt del noroeste, variando entre oeste-noroeste y norte-noreste
Temperatura 16°C
Humedad 88%
Presión 1024 hPa
Visibilidad 10 km o más
Cielo cubierto a una altura de 1200 ft

METAR: LFCK 180830Z AUTO 31003KT 290V020 9999 OVC012 16/14 Q1024 BECMG BKN020

Hora: 10:47 (08:47 UTC)

Pronóstico

El informe se hizo hace 47 minutos, a las 08:00 UTC
Pronóstico válido del 18 a las 09 UTC al 18 a las 18 UTC
Viento 6 kt del oeste
Visibilidad 10 km o más
Cielo nuboso a una altura de 2000 ft
Evolucionando progresivamente
del 18 a las 14 UTC al 18 a las 16 UTC
Visibilidad 10 km o más
sin nubes por debajo de 1500 m y sin presencia de cumulonimbus.

TAF: LFCK 180800Z 1809/1818 28006KT 9999 BKN020 BECMG 1814/1816 CAVOK

Observaciones y pronósticos meteorológicos de más de 4000 aeropuertos (mensajes METAR y TAF).

Los puntos amarillos y rojos representan las estaciones disponibles.

Ponga el ratón en el punto deseado para ver el nombre de la estación.

Haga clic para ver las observaciones y los pronósticos meteorológicos.

Para cambiar el mapa : haga clic en los botones verdes con una cruz de color negro para hacer un zoom, en el botón verde con un guión para alejar o en las flechas verdes para mapas adyacentes.


METAR-TAF: